Time;durP1;ratioP1;P1;durP2;ratioP2;P2;SDS_P1;SDS_P2;PMS_P1;PMS_P2;Temp;Humidity;BMP_temperature;BMP_pressure;BME280_temperature;BME280_humidity;BME280_pressure;Samples;Min_cycle;Max_cycle;Signal;HPM_P1;HPM_P2
2023/11/30 00:00:53;;;;;;;28.52;22.30;;;;;;;;;;4998240;28;25111;-75
2023/11/30 00:03:19;;;;;;;35.17;23.98;;;;;;;;;;4988232;28;25104;-75
2023/11/30 00:05:45;;;;;;;25.77;22.40;;;;;;;;;;4992200;28;25074;-76
2023/11/30 00:08:11;;;;;;;30.35;23.30;;;;;;;;;;4988936;28;25068;-75
2023/11/30 00:10:37;;;;;;;29.98;23.40;;;;;;;;;;4988837;28;25110;-75
2023/11/30 00:13:04;;;;;;;30.85;23.52;;;;;;;;;;4988114;28;25057;-73
2023/11/30 00:15:30;;;;;;;29.58;24.85;;;;;;;;;;4986728;28;25078;-75
2023/11/30 00:17:56;;;;;;;34.20;25.30;;;;;;;;;;4987751;28;25082;-74
2023/11/30 00:20:22;;;;;;;33.58;25.70;;;;;;;;;;4987297;28;25181;-74
2023/11/30 00:22:47;;;;;;;34.33;26.35;;;;;;;;;;4986481;28;25161;-75
2023/11/30 00:25:13;;;;;;;35.58;26.42;;;;;;;;;;4987944;28;25110;-74
2023/11/30 00:27:39;;;;;;;29.27;24.63;;;;;;;;;;5001531;28;25048;-75
2023/11/30 00:30:06;;;;;;;29.20;24.58;;;;;;;;;;4994611;28;25089;-74
2023/11/30 00:32:32;;;;;;;29.95;24.50;;;;;;;;;;4992113;28;25077;-76
2023/11/30 00:34:58;;;;;;;34.83;25.80;;;;;;;;;;4993745;28;25111;-74
2023/11/30 00:37:24;;;;;;;31.67;25.05;;;;;;;;;;4995501;28;25075;-75
2023/11/30 00:39:50;;;;;;;30.35;25.13;;;;;;;;;;4991468;28;25131;-74
2023/11/30 00:42:17;;;;;;;32.33;25.00;;;;;;;;;;4994145;28;25066;-75
2023/11/30 00:44:43;;;;;;;32.40;25.75;;;;;;;;;;4997630;28;25054;-74
2023/11/30 00:47:09;;;;;;;28.20;23.13;;;;;;;;;;4989003;28;25071;-72
2023/11/30 00:49:35;;;;;;;34.72;26.10;;;;;;;;;;4995647;28;25079;-75
2023/11/30 00:52:02;;;;;;;32.90;25.30;;;;;;;;;;4999175;28;25080;-74
2023/11/30 00:54:28;;;;;;;35.60;25.02;;;;;;;;;;4998094;28;25072;-75
2023/11/30 00:56:54;;;;;;;35.65;26.30;;;;;;;;;;5013712;28;25061;-74
2023/11/30 00:59:20;;;;;;;27.30;23.40;;;;;;;;;;4994715;28;25103;-74
2023/11/30 01:01:46;;;;;;;33.60;25.95;;;;;;;;;;5000717;28;25096;-73
2023/11/30 01:04:12;;;;;;;33.65;25.92;;;;;;;;;;4993724;28;25070;-75
2023/11/30 01:06:38;;;;;;;37.42;27.33;;;;;;;;;;4998248;28;25085;-74
2023/11/30 01:09:04;;;;;;;36.83;27.58;;;;;;;;;;4997088;28;25100;-72
2023/11/30 01:11:30;;;;;;;41.70;28.33;;;;;;;;;;5013443;28;25073;-74
2023/11/30 01:13:56;;;;;;;31.80;25.42;;;;;;;;;;4992941;28;25074;-73
2023/11/30 01:16:23;;;;;;;35.33;26.35;;;;;;;;;;5010595;28;25102;-73
2023/11/30 01:18:49;;;;;;;36.70;26.17;;;;;;;;;;4993810;28;25096;-74
2023/11/30 01:21:15;;;;;;;33.35;25.85;;;;;;;;;;5000276;28;25073;-74
2023/11/30 01:23:41;;;;;;;33.35;27.05;;;;;;;;;;4994387;28;25067;-73
2023/11/30 01:26:07;;;;;;;30.42;24.23;;;;;;;;;;4990407;28;25054;-75
2023/11/30 01:28:33;;;;;;;35.72;27.92;;;;;;;;;;5004697;28;25055;-75
2023/11/30 01:30:59;;;;;;;35.80;28.13;;;;;;;;;;5007117;28;25063;-74
2023/11/30 01:33:25;;;;;;;39.30;29.80;;;;;;;;;;5004585;28;25073;-74
2023/11/30 01:35:51;;;;;;;37.78;28.33;;;;;;;;;;5002027;28;25079;-75
2023/11/30 01:38:17;;;;;;;37.58;29.05;;;;;;;;;;5008058;28;25059;-74
2023/11/30 01:40:43;;;;;;;44.45;31.58;;;;;;;;;;5004033;28;25087;-75
2023/11/30 01:43:09;;;;;;;40.22;30.48;;;;;;;;;;5007241;28;25077;-73
2023/11/30 01:45:35;;;;;;;39.40;31.95;;;;;;;;;;5005358;28;25089;-74
2023/11/30 01:48:01;;;;;;;36.80;29.27;;;;;;;;;;5005139;28;25103;-74
2023/11/30 01:50:27;;;;;;;41.33;31.55;;;;;;;;;;4990341;28;25081;-74
2023/11/30 01:52:53;;;;;;;39.08;32.42;;;;;;;;;;4983946;28;25157;-72
2023/11/30 01:55:19;;;;;;;35.53;29.33;;;;;;;;;;4990922;28;25103;-74
2023/11/30 01:57:45;;;;;;;38.25;29.85;;;;;;;;;;4985242;28;25146;-74
2023/11/30 02:00:12;;;;;;;38.15;28.77;;;;;;;;;;4987488;28;25136;-73
2023/11/30 02:02:38;;;;;;;44.70;30.50;;;;;;;;;;4988196;28;25070;-75
2023/11/30 02:05:05;;;;;;;38.35;30.80;;;;;;;;;;4988747;28;25070;-74
2023/11/30 02:07:31;;;;;;;35.67;28.63;;;;;;;;;;4981997;28;25078;-74
2023/11/30 02:09:57;;;;;;;38.20;29.92;;;;;;;;;;4981696;28;25045;-74
2023/11/30 02:12:23;;;;;;;41.30;29.75;;;;;;;;;;4986067;28;25149;-74
2023/11/30 02:14:49;;;;;;;45.15;31.00;;;;;;;;;;4984267;28;25143;-75
2023/11/30 02:17:15;;;;;;;48.40;33.80;;;;;;;;;;4978953;28;25068;-74
2023/11/30 02:19:41;;;;;;;36.80;31.40;;;;;;;;;;4986756;28;25173;-74
2023/11/30 02:22:07;;;;;;;43.47;31.52;;;;;;;;;;4987344;28;25103;-73
2023/11/30 02:24:33;;;;;;;37.53;29.17;;;;;;;;;;4993077;28;25089;-74
2023/11/30 02:26:59;;;;;;;45.45;33.50;;;;;;;;;;5001555;28;25073;-74
2023/11/30 02:29:25;;;;;;;39.28;30.13;;;;;;;;;;5003632;28;25057;-74
2023/11/30 02:31:51;;;;;;;43.38;33.05;;;;;;;;;;4998692;28;25061;-74
2023/11/30 02:34:17;;;;;;;36.67;28.05;;;;;;;;;;4994056;28;25095;-75
2023/11/30 02:36:42;;;;;;;41.78;30.67;;;;;;;;;;5003267;28;25064;-73
2023/11/30 02:39:09;;;;;;;37.72;27.95;;;;;;;;;;5012063;28;25068;-74
2023/11/30 02:41:35;;;;;;;37.67;28.40;;;;;;;;;;5003673;28;25088;-74
2023/11/30 02:44:01;;;;;;;38.72;29.00;;;;;;;;;;5000469;28;25057;-74
2023/11/30 02:46:27;;;;;;;45.38;30.40;;;;;;;;;;4995501;28;25098;-75
2023/11/30 02:48:53;;;;;;;44.72;31.88;;;;;;;;;;4990851;28;25064;-74
2023/11/30 02:51:19;;;;;;;42.67;32.20;;;;;;;;;;4987973;28;25095;-74
2023/11/30 02:53:45;;;;;;;35.83;29.23;;;;;;;;;;4989783;28;25055;-74
2023/11/30 02:56:11;;;;;;;42.22;29.52;;;;;;;;;;4986718;28;25093;-75
2023/11/30 02:58:37;;;;;;;43.28;31.60;;;;;;;;;;4992451;28;25136;-74
2023/11/30 03:01:03;;;;;;;36.97;30.52;;;;;;;;;;4997740;28;25062;-74
2023/11/30 03:03:29;;;;;;;43.55;32.72;;;;;;;;;;4994855;28;25086;-74
2023/11/30 03:05:55;;;;;;;42.10;31.30;;;;;;;;;;4994211;28;25144;-75
2023/11/30 03:08:21;;;;;;;47.47;34.53;;;;;;;;;;4996449;28;25148;-75
2023/11/30 03:10:47;;;;;;;54.67;38.33;;;;;;;;;;5000992;28;25150;-74
2023/11/30 03:13:13;;;;;;;43.22;31.75;;;;;;;;;;4992065;28;25174;-75
2023/11/30 03:15:46;;;;;;;45.13;33.67;;;;;;;;;;5000950;28;25109;-74
2023/11/30 03:18:12;;;;;;;52.17;35.75;;;;;;;;;;4987567;28;25073;-75
2023/11/30 03:20:38;;;;;;;44.03;32.75;;;;;;;;;;4984694;28;25117;-75
2023/11/30 03:23:04;;;;;;;46.85;34.75;;;;;;;;;;4990814;28;25099;-75
2023/11/30 03:25:32;;;;;;;56.75;38.92;;;;;;;;;;4987819;28;25065;-75
2023/11/30 03:27:59;;;;;;;50.50;37.47;;;;;;;;;;4989456;28;25109;-74
2023/11/30 03:30:25;;;;;;;46.90;34.17;;;;;;;;;;4983741;28;25069;-76
2023/11/30 03:32:51;;;;;;;52.30;34.08;;;;;;;;;;4985240;28;25059;-74
2023/11/30 03:35:17;;;;;;;53.70;37.35;;;;;;;;;;4991189;28;25057;-75
2023/11/30 03:37:43;;;;;;;51.03;35.17;;;;;;;;;;4986210;28;25089;-75
2023/11/30 03:40:10;;;;;;;51.88;36.13;;;;;;;;;;4986638;28;25145;-75
2023/11/30 03:42:36;;;;;;;48.33;35.35;;;;;;;;;;4990296;28;25148;-75
2023/11/30 03:45:02;;;;;;;50.08;33.97;;;;;;;;;;4987161;28;25154;-75
2023/11/30 03:47:28;;;;;;;43.40;31.88;;;;;;;;;;4982294;28;25081;-76
2023/11/30 03:49:54;;;;;;;50.15;36.28;;;;;;;;;;4986267;28;25077;-74
2023/11/30 03:52:20;;;;;;;46.30;34.85;;;;;;;;;;4987053;28;25160;-75
2023/11/30 03:54:45;;;;;;;43.70;32.33;;;;;;;;;;4989744;28;25053;-75
2023/11/30 03:57:11;;;;;;;44.85;32.88;;;;;;;;;;4999046;28;25092;-75
2023/11/30 03:59:39;;;;;;;49.92;33.85;;;;;;;;;;4994840;28;25175;-74
2023/11/30 04:02:05;;;;;;;44.65;30.80;;;;;;;;;;4990839;28;25167;-74
2023/11/30 04:04:31;;;;;;;50.35;34.40;;;;;;;;;;4988467;28;25074;-76
2023/11/30 04:06:57;;;;;;;51.42;34.75;;;;;;;;;;4980197;28;25070;-74
2023/11/30 04:09:23;;;;;;;58.40;38.38;;;;;;;;;;4987057;28;25132;-74
2023/11/30 04:11:49;;;;;;;50.20;34.60;;;;;;;;;;4986617;28;25062;-74
2023/11/30 04:14:15;;;;;;;48.70;35.55;;;;;;;;;;4988797;28;25060;-74
2023/11/30 04:16:41;;;;;;;52.22;35.10;;;;;;;;;;4982725;28;25059;-74
2023/11/30 04:19:07;;;;;;;42.13;32.20;;;;;;;;;;4988339;28;25099;-74
2023/11/30 04:21:33;;;;;;;41.50;31.60;;;;;;;;;;4989318;28;25066;-74
2023/11/30 04:23:59;;;;;;;41.95;32.22;;;;;;;;;;4988676;28;25085;-75
2023/11/30 04:26:26;;;;;;;44.63;31.90;;;;;;;;;;4986013;28;25076;-74
2023/11/30 04:28:52;;;;;;;53.30;37.28;;;;;;;;;;4985330;28;25048;-75
2023/11/30 04:31:18;;;;;;;59.45;37.95;;;;;;;;;;4984083;28;25073;-74
2023/11/30 04:33:44;;;;;;;43.65;32.38;;;;;;;;;;4981625;28;25081;-74
2023/11/30 04:36:11;;;;;;;52.83;39.38;;;;;;;;;;4983304;28;25079;-74
2023/11/30 04:38:37;;;;;;;124.32;48.15;;;;;;;;;;4991222;28;25109;-73
2023/11/30 04:41:03;;;;;;;180.23;51.85;;;;;;;;;;4999250;28;25066;-74
2023/11/30 04:43:29;;;;;;;164.95;47.40;;;;;;;;;;5000433;28;25077;-74
2023/11/30 04:45:55;;;;;;;364.90;76.45;;;;;;;;;;5002466;28;25057;-74
2023/11/30 04:48:20;;;;;;;95.72;42.33;;;;;;;;;;5007294;28;25104;-76
2023/11/30 04:50:46;;;;;;;202.27;66.82;;;;;;;;;;5004434;28;25065;-75
2023/11/30 04:53:12;;;;;;;94.85;46.75;;;;;;;;;;4999202;28;25057;-73
2023/11/30 04:55:38;;;;;;;87.28;45.33;;;;;;;;;;4994915;28;25087;-73
2023/11/30 04:58:04;;;;;;;104.78;50.47;;;;;;;;;;4992806;28;25055;-73
2023/11/30 05:00:30;;;;;;;65.32;41.53;;;;;;;;;;4991035;28;25117;-73
2023/11/30 05:02:56;;;;;;;139.45;50.10;;;;;;;;;;4979953;28;25072;-72
2023/11/30 05:05:22;;;;;;;219.05;73.20;;;;;;;;;;4983292;28;25086;-74
2023/11/30 05:07:49;;;;;;;152.82;49.88;;;;;;;;;;4982582;28;25058;-74
2023/11/30 05:10:15;;;;;;;360.83;95.20;;;;;;;;;;4980916;28;25058;-73
2023/11/30 05:12:41;;;;;;;230.25;61.35;;;;;;;;;;4982383;28;25077;-73
2023/11/30 05:15:07;;;;;;;358.00;93.10;;;;;;;;;;4985318;28;25177;-74
2023/11/30 05:17:33;;;;;;;228.38;71.30;;;;;;;;;;4988797;28;25066;-73
2023/11/30 05:20:01;;;;;;;104.80;48.15;;;;;;;;;;4984972;28;25072;-73
2023/11/30 05:22:27;;;;;;;63.30;38.28;;;;;;;;;;4987654;28;25060;-74
2023/11/30 05:24:53;;;;;;;107.38;50.17;;;;;;;;;;4997234;28;25084;-75
2023/11/30 05:27:20;;;;;;;162.80;68.60;;;;;;;;;;5001707;28;25137;-74
2023/11/30 05:29:46;;;;;;;121.38;50.75;;;;;;;;;;4998316;28;25095;-72
2023/11/30 05:32:12;;;;;;;183.27;73.93;;;;;;;;;;4998709;28;25068;-74
2023/11/30 05:34:38;;;;;;;204.23;75.85;;;;;;;;;;5002018;28;25087;-74
2023/11/30 05:37:04;;;;;;;130.85;61.08;;;;;;;;;;4998898;28;25080;-74
2023/11/30 05:39:31;;;;;;;77.90;48.50;;;;;;;;;;5007704;28;25088;-75
2023/11/30 05:41:57;;;;;;;98.35;53.90;;;;;;;;;;5002924;28;25108;-73
2023/11/30 05:44:23;;;;;;;104.57;60.33;;;;;;;;;;4992753;28;25160;-76
2023/11/30 05:46:50;;;;;;;62.67;40.60;;;;;;;;;;4994891;28;25092;-74
2023/11/30 05:49:16;;;;;;;77.85;45.22;;;;;;;;;;4992250;28;25076;-74
2023/11/30 05:51:42;;;;;;;98.47;50.15;;;;;;;;;;4994981;28;25045;-74
2023/11/30 05:54:08;;;;;;;104.97;54.85;;;;;;;;;;4998580;28;25098;-74
2023/11/30 05:56:35;;;;;;;113.60;60.15;;;;;;;;;;5002386;28;25073;-74
2023/11/30 05:59:02;;;;;;;109.97;56.15;;;;;;;;;;4986517;28;25149;-76
2023/11/30 06:01:28;;;;;;;137.45;68.18;;;;;;;;;;4996590;28;25073;-75
2023/11/30 06:03:54;;;;;;;103.70;56.08;;;;;;;;;;4991859;28;25067;-75
2023/11/30 06:06:20;;;;;;;74.70;46.08;;;;;;;;;;4994566;28;25068;-76
2023/11/30 06:08:47;;;;;;;64.03;42.25;;;;;;;;;;4988052;28;25074;-74
2023/11/30 06:11:15;;;;;;;88.78;52.10;;;;;;;;;;4995292;28;25055;-76
2023/11/30 06:13:41;;;;;;;51.88;37.03;;;;;;;;;;4990719;28;25051;-75
2023/11/30 06:16:07;;;;;;;76.15;42.92;;;;;;;;;;4994100;28;25102;-74
2023/11/30 06:18:33;;;;;;;83.13;48.97;;;;;;;;;;4994956;28;25073;-75
2023/11/30 06:20:59;;;;;;;66.57;40.10;;;;;;;;;;4997521;28;25118;-75
2023/11/30 06:23:25;;;;;;;74.70;47.38;;;;;;;;;;4993012;28;25078;-73
2023/11/30 06:25:51;;;;;;;73.53;42.33;;;;;;;;;;4987322;28;25063;-75
2023/11/30 06:28:19;;;;;;;76.72;45.50;;;;;;;;;;4985230;28;25158;-73
2023/11/30 06:30:45;;;;;;;47.28;32.13;;;;;;;;;;4985864;28;25132;-74
2023/11/30 06:33:11;;;;;;;64.38;39.00;;;;;;;;;;4984422;28;25066;-74
2023/11/30 06:35:37;;;;;;;65.55;43.83;;;;;;;;;;4996767;28;25079;-73
2023/11/30 06:38:03;;;;;;;81.60;50.47;;;;;;;;;;4987581;28;25097;-75
2023/11/30 06:40:29;;;;;;;55.13;38.20;;;;;;;;;;4988639;28;25079;-74
2023/11/30 06:42:55;;;;;;;68.80;45.75;;;;;;;;;;4985646;28;25075;-74
2023/11/30 06:45:21;;;;;;;57.30;40.78;;;;;;;;;;4984759;28;25086;-75
2023/11/30 06:47:47;;;;;;;55.58;37.83;;;;;;;;;;4982567;28;25090;-73
2023/11/30 06:50:13;;;;;;;56.92;38.42;;;;;;;;;;4988478;28;25061;-75
2023/11/30 06:52:39;;;;;;;65.53;42.13;;;;;;;;;;4987840;28;25065;-74
2023/11/30 06:55:05;;;;;;;71.25;43.33;;;;;;;;;;4988093;28;25058;-74
2023/11/30 06:57:31;;;;;;;77.22;41.60;;;;;;;;;;4989066;28;25084;-74
2023/11/30 06:59:57;;;;;;;42.03;28.95;;;;;;;;;;4996470;28;25083;-75
2023/11/30 07:02:23;;;;;;;65.32;42.03;;;;;;;;;;4989550;28;25103;-74
2023/11/30 07:04:49;;;;;;;73.85;43.38;;;;;;;;;;4982247;28;25098;-74
2023/11/30 07:07:15;;;;;;;69.03;42.28;;;;;;;;;;4985636;28;25084;-75
2023/11/30 07:09:41;;;;;;;82.68;47.05;;;;;;;;;;4991658;28;25070;-74
2023/11/30 07:12:08;;;;;;;61.80;41.08;;;;;;;;;;4983464;28;25065;-75
2023/11/30 07:14:34;;;;;;;61.67;40.25;;;;;;;;;;4995518;28;25113;-77
2023/11/30 07:17:00;;;;;;;76.80;46.90;;;;;;;;;;4985903;28;25250;-74
2023/11/30 07:19:26;;;;;;;67.38;43.13;;;;;;;;;;4989410;28;25099;-76
2023/11/30 07:21:52;;;;;;;70.55;43.42;;;;;;;;;;5003819;28;25070;-76
2023/11/30 07:24:18;;;;;;;95.15;55.22;;;;;;;;;;4988009;28;25061;-76
2023/11/30 07:26:47;;;;;;;93.78;53.15;;;;;;;;;;4989607;28;25077;-76
2023/11/30 07:29:14;;;;;;;89.15;48.97;;;;;;;;;;4988391;28;25129;-75
2023/11/30 07:31:40;;;;;;;87.22;50.92;;;;;;;;;;4983080;28;25169;-74
2023/11/30 07:34:06;;;;;;;86.10;50.47;;;;;;;;;;4987726;28;25102;-76
2023/11/30 07:36:32;;;;;;;83.10;48.28;;;;;;;;;;4985568;28;25114;-75
2023/11/30 07:38:58;;;;;;;86.68;51.40;;;;;;;;;;4987920;28;25148;-74
2023/11/30 07:41:24;;;;;;;83.35;48.63;;;;;;;;;;4983975;28;25072;-74
2023/11/30 07:43:50;;;;;;;72.78;44.22;;;;;;;;;;4990131;28;25150;-75
2023/11/30 07:46:16;;;;;;;89.15;50.50;;;;;;;;;;4980428;28;25147;-77
2023/11/30 07:48:42;;;;;;;87.22;49.72;;;;;;;;;;4988024;28;25082;-76
2023/11/30 07:51:08;;;;;;;82.13;47.72;;;;;;;;;;4987361;28;25149;-75
2023/11/30 07:53:34;;;;;;;101.25;54.75;;;;;;;;;;4985355;28;25053;-74
2023/11/30 07:56:00;;;;;;;97.93;51.78;;;;;;;;;;4987843;28;25121;-76
2023/11/30 07:58:27;;;;;;;99.97;52.33;;;;;;;;;;4991199;28;25072;-75
2023/11/30 08:00:53;;;;;;;108.97;55.47;;;;;;;;;;4987816;28;25063;-77
2023/11/30 08:03:19;;;;;;;96.32;53.90;;;;;;;;;;4982926;28;25081;-74
2023/11/30 08:05:45;;;;;;;110.13;55.40;;;;;;;;;;4980774;28;25069;-73
2023/11/30 08:08:12;;;;;;;100.15;53.00;;;;;;;;;;4987389;28;25083;-74
2023/11/30 08:10:38;;;;;;;117.88;59.80;;;;;;;;;;4983661;28;25134;-74
2023/11/30 08:13:05;;;;;;;108.40;57.90;;;;;;;;;;4980852;28;25081;-73
2023/11/30 08:15:31;;;;;;;96.57;55.80;;;;;;;;;;4983808;28;25049;-75
2023/11/30 08:17:57;;;;;;;110.38;60.15;;;;;;;;;;4985893;28;25073;-74
2023/11/30 08:20:23;;;;;;;99.90;57.78;;;;;;;;;;4986439;28;25074;-73
2023/11/30 08:22:49;;;;;;;106.13;58.13;;;;;;;;;;4987174;28;25068;-74
2023/11/30 08:25:16;;;;;;;107.15;58.83;;;;;;;;;;4984499;28;25106;-74
2023/11/30 08:27:42;;;;;;;110.78;59.85;;;;;;;;;;4991246;28;25146;-73
2023/11/30 08:30:09;;;;;;;148.02;71.90;;;;;;;;;;4985666;28;25086;-74
2023/11/30 08:32:37;;;;;;;133.73;68.32;;;;;;;;;;4975595;28;25057;-74
2023/11/30 08:35:03;;;;;;;135.82;68.25;;;;;;;;;;4985546;28;25144;-76
2023/11/30 08:37:29;;;;;;;116.90;61.58;;;;;;;;;;4985004;28;25139;-74
2023/11/30 08:39:55;;;;;;;165.25;73.22;;;;;;;;;;4982279;28;25052;-74
2023/11/30 08:42:21;;;;;;;129.95;69.25;;;;;;;;;;4981221;28;25050;-74
2023/11/30 08:44:47;;;;;;;146.55;70.57;;;;;;;;;;4983781;28;25083;-73
2023/11/30 08:47:13;;;;;;;146.27;71.15;;;;;;;;;;4985675;28;25142;-74
2023/11/30 08:49:39;;;;;;;155.68;70.70;;;;;;;;;;4984498;28;25073;-74
2023/11/30 08:52:05;;;;;;;259.70;91.85;;;;;;;;;;4986377;28;25120;-75
2023/11/30 08:54:31;;;;;;;238.25;95.15;;;;;;;;;;4983365;28;25064;-74
2023/11/30 08:56:57;;;;;;;182.15;78.65;;;;;;;;;;4983162;28;25120;-75
2023/11/30 08:59:23;;;;;;;293.52;98.07;;;;;;;;;;4990000;28;25091;-74
2023/11/30 09:01:49;;;;;;;174.43;71.45;;;;;;;;;;4991622;28;25083;-75
2023/11/30 09:04:15;;;;;;;404.35;94.22;;;;;;;;;;4989204;28;25139;-74
2023/11/30 09:06:41;;;;;;;330.00;89.05;;;;;;;;;;4998717;28;25048;-74
2023/11/30 09:09:07;;;;;;;526.38;124.28;;;;;;;;;;5002022;28;25086;-74
2023/11/30 09:11:34;;;;;;;282.52;78.93;;;;;;;;;;5001670;28;25061;-74
2023/11/30 09:14:00;;;;;;;237.00;80.82;;;;;;;;;;5005626;28;25058;-75
2023/11/30 09:16:26;;;;;;;507.30;117.00;;;;;;;;;;5013089;28;25063;-76
2023/11/30 09:18:55;;;;;;;550.25;128.65;;;;;;;;;;5001820;28;25072;-75
2023/11/30 09:21:21;;;;;;;477.30;108.50;;;;;;;;;;5009462;28;25072;-74
2023/11/30 09:23:47;;;;;;;432.33;117.75;;;;;;;;;;5012095;28;25068;-74
2023/11/30 09:26:13;;;;;;;474.05;111.05;;;;;;;;;;5005060;28;25074;-78
2023/11/30 09:28:39;;;;;;;436.08;111.43;;;;;;;;;;5007793;28;25100;-76
2023/11/30 09:31:06;;;;;;;396.63;95.28;;;;;;;;;;5019817;28;25060;-76
2023/11/30 09:33:32;;;;;;;461.33;115.20;;;;;;;;;;5007287;28;25080;-75
2023/11/30 09:35:59;;;;;;;315.85;87.28;;;;;;;;;;5007330;28;25081;-74
2023/11/30 09:38:25;;;;;;;344.80;89.05;;;;;;;;;;5015678;28;25041;-75
2023/11/30 09:40:52;;;;;;;410.58;103.72;;;;;;;;;;5009868;28;25062;-75
2023/11/30 09:43:18;;;;;;;373.20;110.20;;;;;;;;;;5001058;28;25168;-76
2023/11/30 09:45:45;;;;;;;456.08;128.15;;;;;;;;;;5011455;28;25075;-75
2023/11/30 09:48:11;;;;;;;421.70;116.03;;;;;;;;;;5007552;28;25059;-75
2023/11/30 09:50:37;;;;;;;260.60;90.38;;;;;;;;;;5006254;28;25088;-75
2023/11/30 09:53:03;;;;;;;482.13;131.27;;;;;;;;;;5007253;28;25085;-75
2023/11/30 09:55:31;;;;;;;469.55;138.50;;;;;;;;;;5008269;28;25081;-74
2023/11/30 09:57:56;;;;;;;206.80;81.78;;;;;;;;;;5004862;28;25058;-76
2023/11/30 10:00:22;;;;;;;308.90;99.60;;;;;;;;;;5003434;28;25055;-75
2023/11/30 10:02:55;;;;;;;230.02;78.72;;;;;;;;;;5001311;28;25059;-74
2023/11/30 10:05:21;;;;;;;257.17;88.85;;;;;;;;;;5005754;28;25076;-75
2023/11/30 10:07:47;;;;;;;461.00;136.73;;;;;;;;;;5002511;28;25120;-75
2023/11/30 10:10:14;;;;;;;419.83;119.68;;;;;;;;;;4994359;28;25135;-75
2023/11/30 10:12:40;;;;;;;335.95;102.43;;;;;;;;;;4990992;28;25058;-75
2023/11/30 10:15:07;;;;;;;277.65;98.97;;;;;;;;;;4989849;28;25066;-74
2023/11/30 10:17:33;;;;;;;301.25;102.30;;;;;;;;;;4997819;28;25065;-75
2023/11/30 10:19:59;;;;;;;218.55;86.22;;;;;;;;;;4989587;28;25157;-76
2023/11/30 10:22:25;;;;;;;330.55;109.75;;;;;;;;;;4994338;28;25166;-77
2023/11/30 10:24:52;;;;;;;286.17;102.47;;;;;;;;;;4987411;28;25090;-75
2023/11/30 10:27:22;;;;;;;202.68;74.68;;;;;;;;;;4986988;28;25081;-75
2023/11/30 10:29:48;;;;;;;198.93;74.85;;;;;;;;;;4979806;28;25072;-75
2023/11/30 10:32:15;;;;;;;221.80;80.75;;;;;;;;;;4980205;28;25073;-75
2023/11/30 10:34:47;;;;;;;419.95;124.03;;;;;;;;;;4986606;28;25052;-75
2023/11/30 10:37:18;;;;;;;467.98;125.53;;;;;;;;;;4987303;28;25122;-74
2023/11/30 10:39:47;;;;;;;631.42;144.15;;;;;;;;;;4987205;28;25094;-75
2023/11/30 10:42:13;;;;;;;477.27;106.03;;;;;;;;;;4987572;28;25106;-75
2023/11/30 10:44:40;;;;;;;674.05;144.57;;;;;;;;;;4989776;28;25058;-75
2023/11/30 10:47:11;;;;;;;386.15;99.20;;;;;;;;;;4987350;28;25074;-75
2023/11/30 10:49:38;;;;;;;416.40;101.70;;;;;;;;;;4987195;28;25065;-75
2023/11/30 10:52:05;;;;;;;522.40;107.15;;;;;;;;;;4987133;28;25070;-75
2023/11/30 10:54:51;;;;;;;362.00;97.68;;;;;;;;;;4986796;28;25144;-76
2023/11/30 10:57:18;;;;;;;611.13;143.35;;;;;;;;;;4987551;28;25052;-75
2023/11/30 10:59:44;;;;;;;402.27;101.43;;;;;;;;;;4988648;28;25075;-75
2023/11/30 11:02:12;;;;;;;410.15;112.70;;;;;;;;;;4985521;28;25052;-75
2023/11/30 11:04:42;;;;;;;566.67;142.82;;;;;;;;;;4984478;28;25158;-75
2023/11/30 11:07:15;;;;;;;492.35;123.35;;;;;;;;;;4987774;28;25057;-76
2023/11/30 11:09:42;;;;;;;374.17;98.38;;;;;;;;;;4984902;28;25110;-75
2023/11/30 11:12:18;;;;;;;425.85;115.22;;;;;;;;;;4983094;28;25062;-75
2023/11/30 11:14:44;;;;;;;431.30;111.32;;;;;;;;;;4983157;28;25068;-74
2023/11/30 11:17:10;;;;;;;306.80;88.32;;;;;;;;;;4987215;28;25081;-74
2023/11/30 11:19:40;;;;;;;369.95;115.90;;;;;;;;;;4986188;28;25050;-77
2023/11/30 11:22:15;;;;;;;386.25;109.68;;;;;;;;;;4984457;28;25070;-76
2023/11/30 11:24:41;;;;;;;290.80;90.97;;;;;;;;;;4980524;28;25046;-75
2023/11/30 11:27:07;;;;;;;241.18;91.72;;;;;;;;;;4983615;28;25054;-74
2023/11/30 11:29:34;;;;;;;322.50;104.75;;;;;;;;;;4989391;28;25124;-76
2023/11/30 11:32:00;;;;;;;417.27;115.65;;;;;;;;;;4990214;28;25081;-74
2023/11/30 11:34:26;;;;;;;274.15;87.28;;;;;;;;;;4988853;28;25089;-74
2023/11/30 11:36:52;;;;;;;189.65;71.60;;;;;;;;;;4992707;28;25060;-74
2023/11/30 11:39:18;;;;;;;234.75;90.80;;;;;;;;;;4992789;28;25074;-72
2023/11/30 11:41:47;;;;;;;300.23;106.72;;;;;;;;;;4990196;28;25152;-74
2023/11/30 11:44:13;;;;;;;378.17;110.13;;;;;;;;;;4988220;28;25074;-72
2023/11/30 11:46:39;;;;;;;285.20;105.78;;;;;;;;;;4987462;28;25063;-76
2023/11/30 11:49:06;;;;;;;343.00;113.75;;;;;;;;;;4987964;28;25071;-74
2023/11/30 11:51:42;;;;;;;178.57;80.15;;;;;;;;;;4988803;28;25059;-74
2023/11/30 11:54:15;;;;;;;181.23;84.97;;;;;;;;;;4996196;28;25064;-73
2023/11/30 11:56:46;;;;;;;286.92;106.93;;;;;;;;;;4982482;28;25058;-73
2023/11/30 11:59:12;;;;;;;238.43;94.93;;;;;;;;;;4987086;28;25063;-74
2023/11/30 12:01:38;;;;;;;222.75;86.55;;;;;;;;;;4990256;28;25091;-73
2023/11/30 12:04:04;;;;;;;334.85;119.90;;;;;;;;;;4988959;28;25063;-74
2023/11/30 12:06:31;;;;;;;158.88;76.65;;;;;;;;;;4991414;28;25103;-74
2023/11/30 12:08:57;;;;;;;325.15;107.93;;;;;;;;;;4990311;28;25147;-74
2023/11/30 12:11:22;;;;;;;322.55;107.97;;;;;;;;;;4991233;28;25143;-75
2023/11/30 12:13:51;;;;;;;214.15;83.00;;;;;;;;;;4994973;28;25073;-74
2023/11/30 12:16:17;;;;;;;283.08;100.93;;;;;;;;;;4990620;28;25152;-73
2023/11/30 12:18:43;;;;;;;215.20;87.45;;;;;;;;;;4982705;28;25079;-74
2023/11/30 12:21:09;;;;;;;253.15;94.25;;;;;;;;;;4987290;28;25057;-73
2023/11/30 12:23:36;;;;;;;308.75;106.93;;;;;;;;;;4995417;28;25102;-73
2023/11/30 12:26:01;;;;;;;229.05;92.35;;;;;;;;;;4990486;28;25129;-74
2023/11/30 12:28:28;;;;;;;206.88;86.00;;;;;;;;;;4991715;28;25081;-74
2023/11/30 12:30:54;;;;;;;361.80;112.00;;;;;;;;;;4992952;28;25099;-73
2023/11/30 12:33:23;;;;;;;359.63;117.00;;;;;;;;;;4987955;28;25079;-74
2023/11/30 12:35:52;;;;;;;299.92;88.43;;;;;;;;;;4988844;28;25079;-74
2023/11/30 12:38:18;;;;;;;312.73;97.55;;;;;;;;;;4989221;28;25108;-74
2023/11/30 12:40:44;;;;;;;244.98;76.63;;;;;;;;;;4989139;28;25111;-74
2023/11/30 12:43:09;;;;;;;242.23;83.03;;;;;;;;;;4991433;28;25058;-73
2023/11/30 12:45:35;;;;;;;263.48;91.22;;;;;;;;;;4984874;28;25077;-72
2023/11/30 12:48:01;;;;;;;244.23;85.68;;;;;;;;;;4989328;28;25096;-75
2023/11/30 12:50:27;;;;;;;259.38;89.63;;;;;;;;;;4989531;28;25097;-74
2023/11/30 12:52:55;;;;;;;240.82;87.75;;;;;;;;;;4989285;28;25063;-74
2023/11/30 12:55:21;;;;;;;265.30;92.72;;;;;;;;;;4989263;28;25055;-74
2023/11/30 12:57:47;;;;;;;299.45;100.55;;;;;;;;;;4989663;28;25074;-74
2023/11/30 13:00:17;;;;;;;235.82;89.85;;;;;;;;;;4989137;28;25079;-74
2023/11/30 13:02:45;;;;;;;217.23;82.88;;;;;;;;;;4987665;28;25133;-74
2023/11/30 13:05:13;;;;;;;318.23;100.93;;;;;;;;;;4988338;28;25067;-73
2023/11/30 13:07:39;;;;;;;246.70;88.10;;;;;;;;;;4989148;28;25048;-74
2023/11/30 13:10:08;;;;;;;215.73;81.50;;;;;;;;;;4991826;28;25113;-74
2023/11/30 13:12:34;;;;;;;365.05;103.82;;;;;;;;;;4990547;28;25093;-75
2023/11/30 13:15:00;;;;;;;221.00;83.78;;;;;;;;;;4986714;28;25073;-75
2023/11/30 13:17:29;;;;;;;178.98;71.97;;;;;;;;;;4988861;28;25075;-75
2023/11/30 13:19:55;;;;;;;255.60;87.85;;;;;;;;;;4986598;28;25059;-74
2023/11/30 13:22:21;;;;;;;220.55;81.93;;;;;;;;;;4988473;28;25059;-74
2023/11/30 13:24:47;;;;;;;197.57;81.43;;;;;;;;;;4986348;28;25077;-75
2023/11/30 13:27:13;;;;;;;216.00;83.60;;;;;;;;;;4983295;28;25108;-76
2023/11/30 13:29:39;;;;;;;204.63;80.85;;;;;;;;;;4988744;28;25073;-75
2023/11/30 13:32:05;;;;;;;195.02;76.22;;;;;;;;;;4989899;28;25072;-75
2023/11/30 13:34:32;;;;;;;209.98;78.82;;;;;;;;;;4980206;28;25066;-75
2023/11/30 13:37:01;;;;;;;192.73;78.97;;;;;;;;;;4986056;28;25072;-76
2023/11/30 13:39:27;;;;;;;201.90;78.03;;;;;;;;;;4987891;28;25070;-74
2023/11/30 13:41:53;;;;;;;189.10;77.18;;;;;;;;;;4987965;28;25065;-75
2023/11/30 13:44:19;;;;;;;217.52;82.68;;;;;;;;;;4987012;28;25077;-75
2023/11/30 13:46:45;;;;;;;225.23;83.40;;;;;;;;;;4988480;28;25078;-76
2023/11/30 13:49:13;;;;;;;190.65;74.65;;;;;;;;;;4992642;28;25102;-73
2023/11/30 13:51:40;;;;;;;166.95;68.18;;;;;;;;;;4990493;28;25099;-74
2023/11/30 13:54:06;;;;;;;179.30;70.40;;;;;;;;;;4989922;28;25138;-75
2023/11/30 13:56:32;;;;;;;185.70;69.95;;;;;;;;;;4990212;28;25123;-74
2023/11/30 13:58:59;;;;;;;151.95;63.85;;;;;;;;;;4985787;28;25091;-75
2023/11/30 14:01:26;;;;;;;222.40;74.60;;;;;;;;;;4987914;28;25052;-75
2023/11/30 14:03:52;;;;;;;186.27;70.25;;;;;;;;;;4990987;28;25103;-73